Schedule Details


Flight Number: CTN673
Departure: Pula (LDPL) at 16:30
Arrival: Franjo Tudman (LDZA) at 17:10
Route: RJK UT742 KOTOR

Weather Information
LDPL 162330Z 05007KT CAVOK 13/06 Q1018
LDZA 162330Z 24001KT 0300 R04/0550N R22/0800U FG VV002 03/02 Q1021 NOSIG
Schedule Frequency

Route Map